Accueil
METAR-TAF:

METAR-TAF

Aéroports :

Chugiak, Alaska, États-Unis

latitude: 61-25N, longitude: 149-31W, altitude: 29 m

Observation

Le bulletin a été fait il y a 56 minutes, à 18:56 UTC
Vent 3 kt de sud-est
Température -19°C
Humidité 84%
Pression 1016 hPa
Visibilité: 16.1 km
Ciel clair

METAR: PABV 161856Z AUTO 14003KT 10SM CLR M19/M21 A3000 RMK AO2 SLP167 T11891206 FZRANO

Heure: 10:52 (19:52 UTC)


TAF: absent

Observations et prévisions météorologiques de plus de 4000 aéroports (messages METAR et TAF).

Les stations disponibles sont représentées par des disques jaunes et rouges sur la carte.

Passer la souris dessus pour voir le nom de la station.

Cliquer dessus pour voir les observations et prévisions météorologiques.

Pour changer de carte: cliquez sur les boutons verts avec une croix noire pour zoomer, sur le bouton vert avec un tiret pour effectuer un zoom arrière, ou sur les flèches vertes pour les cartes adjacentes.


METAR-TAF: